createdAt,value
2023-02-07T00:00:21.668Z,96337.50
2023-02-07T00:02:49.685Z,96334.63
2023-02-07T00:05:16.914Z,96316.88
2023-02-07T00:07:43.656Z,96288.25
2023-02-07T00:10:10.706Z,96318.22
2023-02-07T00:12:37.403Z,96300.13
2023-02-07T00:15:04.706Z,96334.78
2023-02-07T00:17:32.237Z,96309.47
2023-02-07T00:19:58.924Z,96311.16
2023-02-07T00:22:25.617Z,96303.06
2023-02-07T00:24:52.261Z,96317.34
2023-02-07T00:27:19.104Z,96317.97
2023-02-07T00:29:45.761Z,96321.97
2023-02-07T00:32:12.340Z,96313.06
2023-02-07T00:34:38.963Z,96304.22
2023-02-07T00:37:06.229Z,96309.28
2023-02-07T00:39:32.949Z,96316.75
2023-02-07T00:41:59.827Z,96332.69
2023-02-07T00:44:27.408Z,96330.75
2023-02-07T00:46:54.101Z,96339.34
2023-02-07T00:49:21.057Z,96323.66
2023-02-07T00:51:47.731Z,96345.03
2023-02-07T00:54:14.266Z,96344.81
2023-02-07T00:56:41.136Z,96359.19
2023-02-07T00:59:07.879Z,96359.53
2023-02-07T01:01:34.675Z,96354.47
2023-02-07T01:04:01.738Z,96341.44
2023-02-07T01:06:29.641Z,96338.22
2023-02-07T01:08:58.207Z,96321.06
2023-02-07T01:11:25.091Z,96334.94
2023-02-07T01:13:52.098Z,96315.72
2023-02-07T01:16:23.376Z,96323.00
2023-02-07T01:18:50.390Z,96326.97
2023-02-07T01:21:23.532Z,96326.38
2023-02-07T01:23:50.445Z,96328.31
2023-02-07T01:26:17.601Z,96317.88
2023-02-07T01:28:44.178Z,96323.72
2023-02-07T01:31:13.472Z,96320.97
2023-02-07T01:33:40.300Z,96293.28
2023-02-07T01:36:13.317Z,96308.72
2023-02-07T01:38:40.213Z,96293.75
2023-02-07T01:41:07.272Z,96314.50
2023-02-07T01:43:34.670Z,96293.03
2023-02-07T01:46:01.540Z,96316.06
2023-02-07T01:48:35.585Z,96308.47
2023-02-07T01:51:06.532Z,96313.88
2023-02-07T01:53:36.723Z,96307.31
2023-02-07T01:56:09.181Z,96298.88
2023-02-07T01:58:38.229Z,96288.84
2023-02-07T02:01:09.999Z,96298.31
2023-02-07T02:03:43.005Z,96288.38
2023-02-07T02:06:11.568Z,96289.81
2023-02-07T02:08:38.138Z,96289.38
2023-02-07T02:11:17.131Z,96295.25
2023-02-07T02:14:04.459Z,96291.91
2023-02-07T02:16:49.644Z,96292.31
2023-02-07T02:19:23.356Z,96289.47
2023-02-07T02:22:13.739Z,96296.28
2023-02-07T02:24:40.251Z,96300.72
2023-02-07T02:27:36.077Z,96311.66
2023-02-07T02:30:20.151Z,96303.69
2023-02-07T02:32:49.519Z,96313.91
2023-02-07T02:35:45.356Z,96324.03
2023-02-07T02:38:26.321Z,96314.25
2023-02-07T02:41:01.769Z,96319.75
2023-02-07T02:43:40.919Z,96326.22
2023-02-07T02:46:15.218Z,96307.44
2023-02-07T02:48:44.252Z,96334.69
2023-02-07T02:51:11.025Z,96313.44
2023-02-07T02:53:37.699Z,96323.56
2023-02-07T02:56:19.727Z,96323.44
2023-02-07T02:59:13.636Z,96312.75
2023-02-07T03:01:49.411Z,96321.56
2023-02-07T03:05:02.227Z,96324.97
2023-02-07T03:07:34.912Z,96322.00
2023-02-07T03:10:29.331Z,96316.03
2023-02-07T03:12:58.938Z,96329.31
2023-02-07T03:15:42.223Z,96348.88
2023-02-07T03:18:25.121Z,96353.50
2023-02-07T03:21:00.467Z,96353.47
2023-02-07T03:23:29.842Z,96362.59
2023-02-07T03:26:00.525Z,96360.59
2023-02-07T03:28:30.703Z,96360.22
2023-02-07T03:30:59.621Z,96372.19
2023-02-07T03:33:26.555Z,96375.97
2023-02-07T03:36:11.914Z,96379.44
2023-02-07T03:38:38.852Z,96390.28
2023-02-07T03:41:12.963Z,96378.94
2023-02-07T03:43:41.243Z,96390.94
2023-02-07T03:46:09.771Z,96392.53
2023-02-07T03:48:36.557Z,96404.34
2023-02-07T03:51:03.374Z,96408.03
2023-02-07T03:53:29.936Z,96415.28
2023-02-07T03:55:56.729Z,96431.59
2023-02-07T03:58:23.364Z,96423.78
2023-02-07T04:00:50.026Z,96442.19
2023-02-07T04:03:16.719Z,96445.88
2023-02-07T04:05:45.976Z,96459.03
2023-02-07T04:08:13.955Z,96457.25
2023-02-07T04:10:40.754Z,96454.25
2023-02-07T04:13:07.387Z,96457.25
2023-02-07T04:15:34.139Z,96456.75
2023-02-07T04:18:00.994Z,96470.44
2023-02-07T04:20:27.607Z,96462.97
2023-02-07T04:22:54.184Z,96477.41
2023-02-07T04:25:20.750Z,96472.78
2023-02-07T04:27:47.412Z,96466.16
2023-02-07T04:30:14.175Z,96469.78
2023-02-07T04:32:40.803Z,96495.06
2023-02-07T04:35:07.910Z,96488.41
2023-02-07T04:37:34.528Z,96480.63
2023-02-07T04:40:01.090Z,96500.25
2023-02-07T04:42:27.717Z,96483.66
2023-02-07T04:44:54.356Z,96490.44
2023-02-07T04:47:21.058Z,96486.81
2023-02-07T04:49:47.687Z,96490.06
2023-02-07T04:52:14.333Z,96490.97
2023-02-07T04:54:41.247Z,96492.06
2023-02-07T04:57:07.760Z,96495.06
2023-02-07T04:59:34.446Z,96493.06
2023-02-07T05:02:01.174Z,96515.34
2023-02-07T05:04:27.923Z,96512.25
2023-02-07T05:06:54.605Z,96510.72
2023-02-07T05:09:21.454Z,96503.53
2023-02-07T05:11:48.056Z,96524.13
2023-02-07T05:14:14.697Z,96519.44
2023-02-07T05:16:41.660Z,96525.38
2023-02-07T05:19:08.386Z,96533.22
2023-02-07T05:21:34.938Z,96540.09
2023-02-07T05:24:01.891Z,96538.59
2023-02-07T05:26:28.488Z,96543.47
2023-02-07T05:28:55.049Z,96545.34
2023-02-07T05:31:42.078Z,96563.34
2023-02-07T05:34:08.686Z,96562.44
2023-02-07T05:36:36.100Z,96564.72
2023-02-07T05:39:04.377Z,96552.13
2023-02-07T05:41:31.005Z,96579.66
2023-02-07T05:43:57.762Z,96586.44
2023-02-07T05:46:24.419Z,96575.88
2023-02-07T05:48:51.080Z,96584.16
2023-02-07T05:51:17.772Z,96587.72
2023-02-07T05:53:44.517Z,96588.72
2023-02-07T05:56:11.269Z,96604.34
2023-02-07T05:58:37.852Z,96607.13
2023-02-07T06:01:04.802Z,96604.25
2023-02-07T06:03:31.368Z,96608.38
2023-02-07T06:05:57.995Z,96625.72
2023-02-07T06:08:24.724Z,96626.56
2023-02-07T06:10:51.326Z,96617.25
2023-02-07T06:13:17.924Z,96620.88
2023-02-07T06:15:44.654Z,96630.19
2023-02-07T06:18:11.272Z,96618.03
2023-02-07T06:20:37.841Z,96630.66
2023-02-07T06:23:04.599Z,96638.69
2023-02-07T06:25:31.186Z,96638.69
2023-02-07T06:27:58.154Z,96639.47
2023-02-07T06:30:24.968Z,96642.31
2023-02-07T06:32:51.509Z,96639.00
2023-02-07T06:35:18.136Z,96633.56
2023-02-07T06:37:44.692Z,96644.13
2023-02-07T06:40:11.561Z,96635.06
2023-02-07T06:42:38.107Z,96637.97
2023-02-07T06:45:05.027Z,96641.13
2023-02-07T06:47:31.567Z,96635.13
2023-02-07T06:49:58.230Z,96649.06
2023-02-07T06:52:24.900Z,96647.50
2023-02-07T06:54:51.482Z,96648.88
2023-02-07T06:57:18.038Z,96640.06
2023-02-07T06:59:44.751Z,96653.75
2023-02-07T07:02:13.089Z,96652.16
2023-02-07T07:04:39.650Z,96663.25
2023-02-07T07:07:06.452Z,96655.50
2023-02-07T07:09:33.127Z,96673.25
2023-02-07T07:11:59.665Z,96681.28
2023-02-07T07:14:26.411Z,96670.19
2023-02-07T07:16:53.908Z,96685.66
2023-02-07T07:19:22.429Z,96692.59
2023-02-07T07:21:49.169Z,96697.25
2023-02-07T07:24:15.820Z,96696.97
2023-02-07T07:26:49.561Z,96695.16
2023-02-07T07:29:18.120Z,96696.56
2023-02-07T07:31:45.710Z,96695.53
2023-02-07T07:34:13.045Z,96701.38
2023-02-07T07:36:39.655Z,96710.47
2023-02-07T07:39:08.449Z,96709.63
2023-02-07T07:41:35.073Z,96712.84
2023-02-07T07:44:01.689Z,96706.19
2023-02-07T07:46:28.457Z,96714.25
2023-02-07T07:48:55.074Z,96704.22
2023-02-07T07:51:21.837Z,96713.50
2023-02-07T07:53:48.438Z,96723.75
2023-02-07T07:56:15.062Z,96718.59
2023-02-07T07:58:41.864Z,96719.59
2023-02-07T08:01:08.457Z,96721.50
2023-02-07T08:03:35.109Z,96698.56
2023-02-07T08:06:01.980Z,96708.38
2023-02-07T08:08:28.554Z,96708.38
2023-02-07T08:10:55.306Z,96719.66
2023-02-07T08:13:22.552Z,96720.28
2023-02-07T08:15:49.182Z,96718.78
2023-02-07T08:18:15.757Z,96727.63
2023-02-07T08:20:42.631Z,96725.94
2023-02-07T08:23:09.281Z,96727.63
2023-02-07T08:25:35.873Z,96729.41
2023-02-07T08:28:04.518Z,96730.16
2023-02-07T08:30:31.548Z,96734.97
2023-02-07T08:32:58.343Z,96754.16
2023-02-07T08:35:26.708Z,96743.38
2023-02-07T08:37:54.216Z,96741.22
2023-02-07T08:40:20.894Z,96738.84
2023-02-07T08:42:47.949Z,96739.66
2023-02-07T08:45:16.091Z,96752.75
2023-02-07T08:47:42.662Z,96755.19
2023-02-07T08:50:10.211Z,96743.16
2023-02-07T08:52:37.205Z,96752.75
2023-02-07T08:55:03.992Z,96741.53
2023-02-07T08:57:30.798Z,96741.88
2023-02-07T08:59:57.584Z,96745.72
2023-02-07T09:02:24.297Z,96753.81
2023-02-07T09:04:51.753Z,96759.41
2023-02-07T09:07:19.244Z,96762.50
2023-02-07T09:09:46.980Z,96751.00
2023-02-07T09:12:13.727Z,96758.91
2023-02-07T09:14:40.942Z,96745.53
2023-02-07T09:17:08.786Z,96732.09
2023-02-07T09:19:36.529Z,96752.88
2023-02-07T09:22:04.338Z,96762.38
2023-02-07T09:24:30.977Z,96753.97
2023-02-07T09:26:57.682Z,96754.69
2023-02-07T09:29:24.411Z,96750.34
2023-02-07T09:31:51.468Z,96759.16
2023-02-07T09:34:18.578Z,96760.72
2023-02-07T09:36:45.286Z,96758.44
2023-02-07T09:39:12.061Z,96758.06
2023-02-07T09:41:47.912Z,96760.50
2023-02-07T09:44:18.980Z,96764.81
2023-02-07T09:47:02.577Z,96750.28
2023-02-07T09:49:48.515Z,96756.34
2023-02-07T09:52:21.170Z,96760.50
2023-02-07T09:54:52.909Z,96768.19
2023-02-07T09:57:28.634Z,96765.41
2023-02-07T10:00:02.648Z,96771.78
2023-02-07T10:02:45.010Z,96766.13
2023-02-07T10:05:26.204Z,96786.28
2023-02-07T10:07:52.899Z,96787.75
2023-02-07T10:10:32.296Z,96795.59
2023-02-07T10:13:06.983Z,96795.00
2023-02-07T10:15:40.949Z,96797.44
2023-02-07T10:18:42.872Z,96801.03
2023-02-07T10:21:32.274Z,96805.78
2023-02-07T10:24:41.586Z,96803.03
2023-02-07T10:27:13.517Z,96794.16
2023-02-07T10:30:15.198Z,96793.84
2023-02-07T10:32:43.538Z,96778.31
2023-02-07T10:35:22.789Z,96780.00
2023-02-07T10:37:53.769Z,96772.75
2023-02-07T10:40:49.121Z,96779.13
2023-02-07T10:43:36.274Z,96785.09
2023-02-07T10:46:06.927Z,96780.25
2023-02-07T10:48:35.072Z,96781.81
2023-02-07T10:51:04.580Z,96763.97
2023-02-07T10:53:54.350Z,96767.59
2023-02-07T10:56:27.315Z,96765.50
2023-02-07T10:58:56.007Z,96777.59
2023-02-07T11:01:26.760Z,96779.19
2023-02-07T11:03:54.721Z,96781.41
2023-02-07T11:06:32.894Z,96785.13
2023-02-07T11:09:24.272Z,96774.03
2023-02-07T11:11:52.779Z,96786.75
2023-02-07T11:14:26.485Z,96794.84
2023-02-07T11:16:58.092Z,96791.56
2023-02-07T11:19:31.782Z,96787.31
2023-02-07T11:22:19.548Z,96779.72
2023-02-07T11:24:48.029Z,96789.47
2023-02-07T11:27:15.783Z,96788.16
2023-02-07T11:30:08.281Z,96804.50
2023-02-07T11:32:38.351Z,96794.66
2023-02-07T11:35:09.587Z,96778.47
2023-02-07T11:37:38.695Z,96775.81
2023-02-07T11:40:22.522Z,96773.78
2023-02-07T11:43:03.747Z,96769.63
2023-02-07T11:45:34.671Z,96768.91
2023-02-07T11:48:02.897Z,96766.13
2023-02-07T11:50:30.525Z,96760.97
2023-02-07T11:53:00.584Z,96742.13
2023-02-07T11:55:30.757Z,96750.91
2023-02-07T11:57:58.126Z,96752.91
2023-02-07T12:00:29.831Z,96751.16
2023-02-07T12:03:18.370Z,96755.72
2023-02-07T12:05:50.246Z,96750.56
2023-02-07T12:08:20.465Z,96757.38
2023-02-07T12:10:52.684Z,96755.34
2023-02-07T12:13:27.241Z,96758.00
2023-02-07T12:16:02.445Z,96743.19
2023-02-07T12:18:38.015Z,96747.78
2023-02-07T12:21:04.937Z,96738.19
2023-02-07T12:23:46.583Z,96738.81
2023-02-07T12:26:31.942Z,96736.56
2023-02-07T12:29:36.572Z,96733.66
2023-02-07T12:32:27.398Z,96730.63
2023-02-07T12:35:37.729Z,96742.06
2023-02-07T12:38:25.184Z,96740.88
2023-02-07T12:40:59.615Z,96741.75
2023-02-07T12:43:28.146Z,96734.53
2023-02-07T12:46:02.493Z,96733.34
2023-02-07T12:48:47.514Z,96737.13
2023-02-07T12:51:29.770Z,96738.31
2023-02-07T12:54:16.023Z,96740.59
2023-02-07T12:57:05.703Z,96742.00
2023-02-07T12:59:58.309Z,96732.84
2023-02-07T13:02:43.084Z,96733.69
2023-02-07T13:05:22.941Z,96740.28
2023-02-07T13:08:01.078Z,96739.78
2023-02-07T13:10:43.502Z,96733.84
2023-02-07T13:13:28.061Z,96733.72
2023-02-07T13:16:06.465Z,96737.16
2023-02-07T13:18:42.205Z,96740.44
2023-02-07T13:21:24.628Z,96743.19
2023-02-07T13:23:51.358Z,96743.41
2023-02-07T13:26:24.863Z,96735.44
2023-02-07T13:28:56.247Z,96739.38
2023-02-07T13:31:32.787Z,96738.69
2023-02-07T13:34:00.314Z,96739.16
2023-02-07T13:36:42.445Z,96743.59
2023-02-07T13:39:34.490Z,96730.00
2023-02-07T13:42:26.045Z,96743.97
2023-02-07T13:45:12.349Z,96741.19
2023-02-07T13:47:57.803Z,96732.00
2023-02-07T13:50:40.294Z,96739.44
2023-02-07T13:53:34.939Z,96742.41
2023-02-07T13:56:03.896Z,96735.88
2023-02-07T13:58:52.469Z,96738.09
2023-02-07T14:01:28.386Z,96731.78
2023-02-07T14:04:05.245Z,96736.28
2023-02-07T14:06:37.098Z,96726.94
2023-02-07T14:09:24.471Z,96733.47
2023-02-07T14:12:06.569Z,96730.91
2023-02-07T14:14:38.820Z,96740.75
2023-02-07T14:17:13.839Z,96744.72
2023-02-07T14:19:40.644Z,96743.97
2023-02-07T14:22:17.068Z,96736.13
2023-02-07T14:24:59.049Z,96735.88
2023-02-07T14:27:34.961Z,96738.63
2023-02-07T14:30:01.683Z,96736.53
2023-02-07T14:32:31.743Z,96738.25
2023-02-07T14:34:58.243Z,96731.94
2023-02-07T14:37:51.708Z,96735.47
2023-02-07T14:40:31.815Z,96733.00
2023-02-07T14:43:15.864Z,96730.72
2023-02-07T14:45:51.375Z,96736.47
2023-02-07T14:48:53.040Z,96711.50
2023-02-07T14:51:32.013Z,96724.91
2023-02-07T14:54:20.223Z,96727.59
2023-02-07T14:56:50.010Z,96724.88
2023-02-07T14:59:36.021Z,96711.00
2023-02-07T15:02:39.246Z,96727.44
2023-02-07T15:05:28.437Z,96724.72
2023-02-07T15:08:04.241Z,96724.63
2023-02-07T15:10:33.797Z,96707.13
2023-02-07T15:13:01.684Z,96717.59
2023-02-07T15:15:31.016Z,96714.03
2023-02-07T15:18:02.798Z,96727.28
2023-02-07T15:20:34.957Z,96716.00
2023-02-07T15:23:07.437Z,96713.72
2023-02-07T15:25:35.396Z,96712.13
2023-02-07T15:28:25.397Z,96725.88
2023-02-07T15:31:06.953Z,96717.03
2023-02-07T15:33:39.493Z,96722.66
2023-02-07T15:36:25.454Z,96702.59
2023-02-07T15:38:52.849Z,96718.50
2023-02-07T15:41:19.756Z,96710.63
2023-02-07T15:44:01.599Z,96714.94
2023-02-07T15:46:47.819Z,96704.34
2023-02-07T15:49:37.350Z,96713.84
2023-02-07T15:52:12.749Z,96717.44
2023-02-07T15:54:44.152Z,96718.19
2023-02-07T15:57:28.991Z,96724.50
2023-02-07T16:00:00.701Z,96721.81
2023-02-07T16:02:32.743Z,96721.16
2023-02-07T16:05:07.419Z,96719.56
2023-02-07T16:07:33.983Z,96724.25
2023-02-07T16:10:18.836Z,96717.25
2023-02-07T16:12:53.081Z,96726.16
2023-02-07T16:15:53.512Z,96723.69
2023-02-07T16:18:40.995Z,96725.53
2023-02-07T16:21:14.745Z,96724.31
2023-02-07T16:23:42.317Z,96717.28
2023-02-07T16:26:09.260Z,96727.09
2023-02-07T16:28:36.009Z,96729.31
2023-02-07T16:31:02.698Z,96732.38
2023-02-07T16:33:29.275Z,96723.41
2023-02-07T16:35:55.872Z,96733.91
2023-02-07T16:38:22.479Z,96732.44
2023-02-07T16:40:49.527Z,96728.28
2023-02-07T16:43:40.530Z,96733.78
2023-02-07T16:46:07.095Z,96728.09
2023-02-07T16:48:33.667Z,96735.38
2023-02-07T16:51:01.444Z,96731.69
2023-02-07T16:53:28.039Z,96728.19
2023-02-07T16:55:56.478Z,96720.88
2023-02-07T16:58:29.191Z,96734.22
2023-02-07T17:00:56.250Z,96743.41
2023-02-07T17:03:23.910Z,96734.91
2023-02-07T17:05:50.955Z,96734.44
2023-02-07T17:08:27.229Z,96722.28
2023-02-07T17:10:59.063Z,96727.69
2023-02-07T17:13:26.043Z,96740.63
2023-02-07T17:15:52.928Z,96733.22
2023-02-07T17:18:21.008Z,96740.31
2023-02-07T17:20:48.045Z,96737.53
2023-02-07T17:23:14.892Z,96734.13
2023-02-07T17:25:42.892Z,96746.34
2023-02-07T17:28:13.196Z,96740.19
2023-02-07T17:30:41.402Z,96743.41
2023-02-07T17:33:09.806Z,96745.16
2023-02-07T17:35:37.626Z,96751.34
2023-02-07T17:38:04.343Z,96751.34
2023-02-07T17:40:39.489Z,96756.19
2023-02-07T17:43:07.041Z,96757.25
2023-02-07T17:45:36.107Z,96763.34
2023-02-07T17:48:04.067Z,96758.84
2023-02-07T17:50:36.753Z,96761.50
2023-02-07T17:53:03.601Z,96767.31
2023-02-07T17:55:32.360Z,96769.22
2023-02-07T17:58:00.248Z,96775.53
2023-02-07T18:00:30.361Z,96769.06
2023-02-07T18:02:57.319Z,96768.81
2023-02-07T18:05:25.012Z,96776.94
2023-02-07T18:07:52.948Z,96781.00
2023-02-07T18:10:23.274Z,96786.97
2023-02-07T18:12:50.430Z,96779.91
2023-02-07T18:15:19.126Z,96789.22
2023-02-07T18:17:47.604Z,96773.03
2023-02-07T18:20:27.259Z,96777.06
2023-02-07T18:22:55.454Z,96770.34
2023-02-07T18:25:22.883Z,96788.81
2023-02-07T18:27:51.702Z,96776.88
2023-02-07T18:30:20.532Z,96790.41
2023-02-07T18:32:47.542Z,96786.34
2023-02-07T18:35:14.297Z,96785.09
2023-02-07T18:37:41.668Z,96781.22
2023-02-07T18:40:10.245Z,96775.06
2023-02-07T18:42:36.873Z,96768.53
2023-02-07T18:45:03.743Z,96767.97
2023-02-07T18:47:32.509Z,96779.22
2023-02-07T18:49:59.452Z,96764.72
2023-02-07T18:52:26.134Z,96765.88
2023-02-07T18:54:52.735Z,96761.03
2023-02-07T18:57:19.390Z,96760.19
2023-02-07T18:59:46.073Z,96775.75
2023-02-07T19:02:13.406Z,96760.69
2023-02-07T19:04:40.489Z,96764.88
2023-02-07T19:07:07.115Z,96772.91
2023-02-07T19:09:34.032Z,96762.91
2023-02-07T19:12:01.198Z,96764.31
2023-02-07T19:14:32.879Z,96761.91
2023-02-07T19:16:59.910Z,96759.31
2023-02-07T19:19:29.196Z,96758.31
2023-02-07T19:21:56.483Z,96766.19
2023-02-07T19:24:24.253Z,96748.56
2023-02-07T19:26:53.761Z,96761.00
2023-02-07T19:29:28.104Z,96759.72
2023-02-07T19:31:59.951Z,96748.63
2023-02-07T19:34:26.653Z,96760.50
2023-02-07T19:36:53.958Z,96748.69
2023-02-07T19:39:21.387Z,96765.25
2023-02-07T19:41:48.542Z,96756.47
2023-02-07T19:44:17.081Z,96755.28
2023-02-07T19:46:44.343Z,96749.88
2023-02-07T19:49:12.916Z,96756.81
2023-02-07T19:51:40.033Z,96765.47
2023-02-07T19:54:06.978Z,96758.75
2023-02-07T19:56:34.054Z,96757.75
2023-02-07T19:59:03.735Z,96758.06
2023-02-07T20:01:33.255Z,96753.72
2023-02-07T20:04:00.781Z,96758.97
2023-02-07T20:06:31.367Z,96748.44
2023-02-07T20:09:03.719Z,96746.16
2023-02-07T20:11:30.568Z,96750.00
2023-02-07T20:14:06.946Z,96754.25
2023-02-07T20:16:36.333Z,96750.81
2023-02-07T20:19:05.876Z,96747.38
2023-02-07T20:21:34.871Z,96761.16
2023-02-07T20:24:02.422Z,96749.78
2023-02-07T20:26:38.097Z,96746.44
2023-02-07T20:29:09.481Z,96743.34
2023-02-07T20:31:37.267Z,96746.69
2023-02-07T20:34:05.067Z,96744.41
2023-02-07T20:36:33.600Z,96741.09
2023-02-07T20:39:00.600Z,96734.56
2023-02-07T20:41:29.629Z,96741.84
2023-02-07T20:44:04.605Z,96727.72
2023-02-07T20:46:32.756Z,96728.84
2023-02-07T20:49:05.733Z,96732.25
2023-02-07T20:51:32.848Z,96734.25
2023-02-07T20:54:01.358Z,96726.84
2023-02-07T20:56:28.945Z,96725.16
2023-02-07T20:58:57.929Z,96716.69
2023-02-07T21:01:30.255Z,96741.41
2023-02-07T21:03:59.545Z,96741.25
2023-02-07T21:06:27.163Z,96736.97
2023-02-07T21:09:05.390Z,96741.53
2023-02-07T21:11:39.303Z,96729.00
2023-02-07T21:14:15.959Z,96733.06
2023-02-07T21:16:42.984Z,96732.53
2023-02-07T21:19:10.168Z,96747.06
2023-02-07T21:21:37.744Z,96735.94
2023-02-07T21:24:04.688Z,96739.34
2023-02-07T21:26:31.328Z,96740.41
2023-02-07T21:29:03.040Z,96724.88
2023-02-07T21:31:31.356Z,96736.72
2023-02-07T21:33:58.469Z,96742.91
2023-02-07T21:36:30.477Z,96751.06
2023-02-07T21:38:59.464Z,96748.69
2023-02-07T21:41:28.755Z,96737.91
2023-02-07T21:43:56.922Z,96740.25
2023-02-07T21:46:26.533Z,96743.00
2023-02-07T21:48:58.197Z,96743.06
2023-02-07T21:51:26.052Z,96736.38
2023-02-07T21:53:54.466Z,96720.91
2023-02-07T21:56:26.779Z,96718.78
2023-02-07T21:58:58.619Z,96722.44
2023-02-07T22:01:26.159Z,96712.41
2023-02-07T22:03:56.324Z,96711.63
2023-02-07T22:06:23.661Z,96712.72
2023-02-07T22:08:52.448Z,96703.72
2023-02-07T22:11:21.633Z,96707.59
2023-02-07T22:13:51.234Z,96705.81
2023-02-07T22:16:19.674Z,96705.34
2023-02-07T22:18:46.324Z,96692.84
2023-02-07T22:21:19.048Z,96698.56
2023-02-07T22:23:46.358Z,96699.88
2023-02-07T22:26:13.638Z,96700.88
2023-02-07T22:28:41.589Z,96693.69
2023-02-07T22:31:13.225Z,96693.19
2023-02-07T22:33:40.072Z,96705.88
2023-02-07T22:36:22.617Z,96699.47
2023-02-07T22:38:50.391Z,96699.16
2023-02-07T22:41:17.728Z,96712.31
2023-02-07T22:43:44.613Z,96702.53
2023-02-07T22:46:14.676Z,96707.72
2023-02-07T22:48:41.519Z,96713.41
2023-02-07T22:51:17.828Z,96714.44
2023-02-07T22:53:44.964Z,96712.41
2023-02-07T22:56:12.248Z,96696.94
2023-02-07T22:58:40.650Z,96714.22
2023-02-07T23:01:08.065Z,96716.56
2023-02-07T23:03:34.836Z,96709.34
2023-02-07T23:06:05.663Z,96707.28
2023-02-07T23:08:32.578Z,96719.19
2023-02-07T23:10:59.187Z,96717.06
2023-02-07T23:13:26.318Z,96709.88
2023-02-07T23:15:53.974Z,96699.53
2023-02-07T23:18:20.857Z,96691.00
2023-02-07T23:20:47.652Z,96704.72
2023-02-07T23:23:14.284Z,96703.16
2023-02-07T23:25:45.838Z,96692.13
2023-02-07T23:28:13.739Z,96704.25
2023-02-07T23:30:41.732Z,96702.72
2023-02-07T23:33:09.798Z,96702.13
2023-02-07T23:35:36.787Z,96684.09
2023-02-07T23:38:04.018Z,96692.34
2023-02-07T23:40:30.765Z,96692.81
2023-02-07T23:42:57.737Z,96700.06
2023-02-07T23:45:25.138Z,96692.22
2023-02-07T23:47:51.779Z,96688.16
2023-02-07T23:50:18.690Z,96685.41
2023-02-07T23:52:45.458Z,96688.72
2023-02-07T23:55:12.275Z,96691.56
2023-02-07T23:57:39.003Z,96670.13
